sensor_id;sensor_type;location;lat;lon;timestamp;temperature;humidity
20483;DHT22;10400;53.198;6.592;2023-02-01T00:00:33;7.00;99.90
20483;DHT22;10400;53.198;6.592;2023-02-01T00:03:00;7.00;99.90
20483;DHT22;10400;53.198;6.592;2023-02-01T00:05:26;6.90;99.90
20483;DHT22;10400;53.198;6.592;2023-02-01T00:07:51;6.90;99.90
20483;DHT22;10400;53.198;6.592;2023-02-01T00:10:17;7.00;99.90
20483;DHT22;10400;53.198;6.592;2023-02-01T00:12:44;7.00;99.90
20483;DHT22;10400;53.198;6.592;2023-02-01T00:15:10;7.00;99.90
20483;DHT22;10400;53.198;6.592;2023-02-01T00:17:35;7.00;99.90
20483;DHT22;10400;53.198;6.592;2023-02-01T00:20:01;7.00;99.90
20483;DHT22;10400;53.198;6.592;2023-02-01T00:22:27;7.00;99.90
20483;DHT22;10400;53.198;6.592;2023-02-01T00:24:53;7.00;99.90
20483;DHT22;10400;53.198;6.592;2023-02-01T00:27:21;7.00;99.90
20483;DHT22;10400;53.198;6.592;2023-02-01T00:29:47;7.00;99.90
20483;DHT22;10400;53.198;6.592;2023-02-01T00:32:13;7.00;99.90
20483;DHT22;10400;53.198;6.592;2023-02-01T00:34:38;7.00;99.90
20483;DHT22;10400;53.198;6.592;2023-02-01T00:37:04;7.00;99.90
20483;DHT22;10400;53.198;6.592;2023-02-01T00:39:29;7.00;99.90
20483;DHT22;10400;53.198;6.592;2023-02-01T00:41:55;7.00;99.90
20483;DHT22;10400;53.198;6.592;2023-02-01T00:44:21;7.00;99.90
20483;DHT22;10400;53.198;6.592;2023-02-01T00:46:46;7.00;99.90
20483;DHT22;10400;53.198;6.592;2023-02-01T00:49:12;7.10;99.90
20483;DHT22;10400;53.198;6.592;2023-02-01T00:51:37;7.00;99.90
20483;DHT22;10400;53.198;6.592;2023-02-01T00:54:03;7.10;99.90
20483;DHT22;10400;53.198;6.592;2023-02-01T00:56:29;7.00;99.90
20483;DHT22;10400;53.198;6.592;2023-02-01T00:58:55;7.00;99.90
20483;DHT22;10400;53.198;6.592;2023-02-01T01:01:23;7.10;99.90
20483;DHT22;10400;53.198;6.592;2023-02-01T01:03:52;7.10;99.90
20483;DHT22;10400;53.198;6.592;2023-02-01T01:06:22;7.10;99.90
20483;DHT22;10400;53.198;6.592;2023-02-01T01:08:54;7.10;99.90
20483;DHT22;10400;53.198;6.592;2023-02-01T01:11:24;7.10;99.90
20483;DHT22;10400;53.198;6.592;2023-02-01T01:13:52;7.10;99.90
20483;DHT22;10400;53.198;6.592;2023-02-01T01:16:19;7.10;99.90
20483;DHT22;10400;53.198;6.592;2023-02-01T01:18:45;7.10;99.90
20483;DHT22;10400;53.198;6.592;2023-02-01T01:21:13;7.10;99.90
20483;DHT22;10400;53.198;6.592;2023-02-01T01:23:39;7.10;99.90
20483;DHT22;10400;53.198;6.592;2023-02-01T01:26:11;7.10;99.90
20483;DHT22;10400;53.198;6.592;2023-02-01T01:28:37;7.10;99.90
20483;DHT22;10400;53.198;6.592;2023-02-01T01:31:03;7.10;99.90
20483;DHT22;10400;53.198;6.592;2023-02-01T01:33:29;7.10;99.90
20483;DHT22;10400;53.198;6.592;2023-02-01T01:35:55;7.20;99.90
20483;DHT22;10400;53.198;6.592;2023-02-01T01:38:21;7.10;99.90
20483;DHT22;10400;53.198;6.592;2023-02-01T01:40:47;7.10;99.90
20483;DHT22;10400;53.198;6.592;2023-02-01T01:43:16;7.10;99.90
20483;DHT22;10400;53.198;6.592;2023-02-01T01:45:43;7.10;99.90
20483;DHT22;10400;53.198;6.592;2023-02-01T01:48:32;7.10;99.90
20483;DHT22;10400;53.198;6.592;2023-02-01T01:51:09;7.10;99.90
20483;DHT22;10400;53.198;6.592;2023-02-01T01:53:45;7.00;99.90
20483;DHT22;10400;53.198;6.592;2023-02-01T01:56:13;7.10;99.90
20483;DHT22;10400;53.198;6.592;2023-02-01T01:58:39;7.00;99.90
20483;DHT22;10400;53.198;6.592;2023-02-01T02:01:05;7.00;99.90
20483;DHT22;10400;53.198;6.592;2023-02-01T02:03:42;6.90;99.90
20483;DHT22;10400;53.198;6.592;2023-02-01T02:06:28;6.90;99.90
20483;DHT22;10400;53.198;6.592;2023-02-01T02:08:55;6.90;99.90
20483;DHT22;10400;53.198;6.592;2023-02-01T02:11:24;6.80;99.90
20483;DHT22;10400;53.198;6.592;2023-02-01T02:13:52;6.80;99.90
20483;DHT22;10400;53.198;6.592;2023-02-01T02:19:02;6.80;99.90
20483;DHT22;10400;53.198;6.592;2023-02-01T02:30:37;6.70;99.90
20483;DHT22;10400;53.198;6.592;2023-02-01T02:38:56;6.50;99.90
20483;DHT22;10400;53.198;6.592;2023-02-01T02:47:31;6.50;99.90
20483;DHT22;10400;53.198;6.592;2023-02-01T02:50:11;6.60;99.90
20483;DHT22;10400;53.198;6.592;2023-02-01T02:53:18;6.60;99.90
20483;DHT22;10400;53.198;6.592;2023-02-01T02:56:06;6.50;99.90
20483;DHT22;10400;53.198;6.592;2023-02-01T02:58:52;6.60;99.90
20483;DHT22;10400;53.198;6.592;2023-02-01T03:01:38;6.60;99.90
20483;DHT22;10400;53.198;6.592;2023-02-01T03:04:22;6.60;99.90
20483;DHT22;10400;53.198;6.592;2023-02-01T03:06:49;6.70;99.90
20483;DHT22;10400;53.198;6.592;2023-02-01T03:09:31;6.70;99.90
20483;DHT22;10400;53.198;6.592;2023-02-01T03:12:04;6.70;99.90
20483;DHT22;10400;53.198;6.592;2023-02-01T03:14:56;6.80;99.90
20483;DHT22;10400;53.198;6.592;2023-02-01T03:17:30;6.80;99.90
20483;DHT22;10400;53.198;6.592;2023-02-01T03:20:00;6.90;99.90
20483;DHT22;10400;53.198;6.592;2023-02-01T03:22:28;6.90;99.90
20483;DHT22;10400;53.198;6.592;2023-02-01T03:25:13;6.90;99.90
20483;DHT22;10400;53.198;6.592;2023-02-01T03:27:44;6.90;99.90
20483;DHT22;10400;53.198;6.592;2023-02-01T03:30:17;7.00;99.90
20483;DHT22;10400;53.198;6.592;2023-02-01T03:32:46;6.90;99.90
20483;DHT22;10400;53.198;6.592;2023-02-01T03:38:12;7.00;99.90
20483;DHT22;10400;53.198;6.592;2023-02-01T03:40:40;7.00;99.90
20483;DHT22;10400;53.198;6.592;2023-02-01T03:43:09;7.00;99.90
20483;DHT22;10400;53.198;6.592;2023-02-01T03:45:41;6.90;99.90
20483;DHT22;10400;53.198;6.592;2023-02-01T03:48:10;7.00;99.90
20483;DHT22;10400;53.198;6.592;2023-02-01T03:50:43;7.00;99.90
20483;DHT22;10400;53.198;6.592;2023-02-01T03:53:17;7.00;99.90
20483;DHT22;10400;53.198;6.592;2023-02-01T03:55:44;7.00;99.90
20483;DHT22;10400;53.198;6.592;2023-02-01T03:58:19;7.00;99.90
20483;DHT22;10400;53.198;6.592;2023-02-01T04:00:56;6.90;99.90
20483;DHT22;10400;53.198;6.592;2023-02-01T04:03:23;6.90;99.90
20483;DHT22;10400;53.198;6.592;2023-02-01T04:05:51;6.90;99.90
20483;DHT22;10400;53.198;6.592;2023-02-01T04:08:18;6.80;99.90
20483;DHT22;10400;53.198;6.592;2023-02-01T04:10:44;6.90;99.90
20483;DHT22;10400;53.198;6.592;2023-02-01T04:13:10;6.80;99.90
20483;DHT22;10400;53.198;6.592;2023-02-01T04:15:35;6.90;99.90
20483;DHT22;10400;53.198;6.592;2023-02-01T04:18:01;6.90;99.90
20483;DHT22;10400;53.198;6.592;2023-02-01T04:20:27;6.90;99.90
20483;DHT22;10400;53.198;6.592;2023-02-01T04:22:52;6.90;99.90
20483;DHT22;10400;53.198;6.592;2023-02-01T04:25:18;7.00;99.90
20483;DHT22;10400;53.198;6.592;2023-02-01T04:27:44;7.00;99.90
20483;DHT22;10400;53.198;6.592;2023-02-01T04:30:10;7.00;99.90
20483;DHT22;10400;53.198;6.592;2023-02-01T04:32:37;7.00;99.90
20483;DHT22;10400;53.198;6.592;2023-02-01T04:35:03;7.00;99.90
20483;DHT22;10400;53.198;6.592;2023-02-01T04:37:29;7.00;99.90
20483;DHT22;10400;53.198;6.592;2023-02-01T04:39:54;7.00;99.90
20483;DHT22;10400;53.198;6.592;2023-02-01T04:42:20;7.00;99.90
20483;DHT22;10400;53.198;6.592;2023-02-01T04:44:46;7.00;99.90
20483;DHT22;10400;53.198;6.592;2023-02-01T04:47:12;7.00;99.90
20483;DHT22;10400;53.198;6.592;2023-02-01T04:49:37;7.00;99.90
20483;DHT22;10400;53.198;6.592;2023-02-01T04:52:03;7.00;99.90
20483;DHT22;10400;53.198;6.592;2023-02-01T04:54:29;7.00;99.90
20483;DHT22;10400;53.198;6.592;2023-02-01T04:56:55;7.00;99.90
20483;DHT22;10400;53.198;6.592;2023-02-01T04:59:20;7.00;99.90
20483;DHT22;10400;53.198;6.592;2023-02-01T05:01:46;7.00;99.90
20483;DHT22;10400;53.198;6.592;2023-02-01T05:04:11;6.90;99.90
20483;DHT22;10400;53.198;6.592;2023-02-01T05:06:37;6.90;99.90
20483;DHT22;10400;53.198;6.592;2023-02-01T05:09:03;6.90;99.90
20483;DHT22;10400;53.198;6.592;2023-02-01T05:11:28;7.00;99.90
20483;DHT22;10400;53.198;6.592;2023-02-01T05:14:12;6.90;99.90
20483;DHT22;10400;53.198;6.592;2023-02-01T05:16:38;6.90;99.90
20483;DHT22;10400;53.198;6.592;2023-02-01T05:19:04;6.90;99.90
20483;DHT22;10400;53.198;6.592;2023-02-01T05:21:29;6.90;99.90
20483;DHT22;10400;53.198;6.592;2023-02-01T05:23:55;6.90;99.90
20483;DHT22;10400;53.198;6.592;2023-02-01T05:26:45;6.90;99.90
20483;DHT22;10400;53.198;6.592;2023-02-01T05:29:11;6.90;99.90
20483;DHT22;10400;53.198;6.592;2023-02-01T05:31:38;6.90;99.90
20483;DHT22;10400;53.198;6.592;2023-02-01T05:34:04;6.90;99.90
20483;DHT22;10400;53.198;6.592;2023-02-01T05:36:30;6.90;99.90
20483;DHT22;10400;53.198;6.592;2023-02-01T05:38:56;7.00;99.90
20483;DHT22;10400;53.198;6.592;2023-02-01T05:41:21;7.00;99.90
20483;DHT22;10400;53.198;6.592;2023-02-01T05:43:47;7.10;99.90
20483;DHT22;10400;53.198;6.592;2023-02-01T05:46:13;7.00;99.90
20483;DHT22;10400;53.198;6.592;2023-02-01T05:48:43;7.10;99.90
20483;DHT22;10400;53.198;6.592;2023-02-01T05:51:10;7.10;99.90
20483;DHT22;10400;53.198;6.592;2023-02-01T05:53:36;7.10;99.90
20483;DHT22;10400;53.198;6.592;2023-02-01T05:56:02;7.10;99.90
20483;DHT22;10400;53.198;6.592;2023-02-01T05:58:27;7.10;99.90
20483;DHT22;10400;53.198;6.592;2023-02-01T06:00:53;7.20;99.90
20483;DHT22;10400;53.198;6.592;2023-02-01T06:03:19;7.10;99.90
20483;DHT22;10400;53.198;6.592;2023-02-01T06:05:45;7.10;99.90
20483;DHT22;10400;53.198;6.592;2023-02-01T06:08:11;7.10;99.90
20483;DHT22;10400;53.198;6.592;2023-02-01T06:10:37;7.10;99.90
20483;DHT22;10400;53.198;6.592;2023-02-01T06:13:03;7.10;99.90
20483;DHT22;10400;53.198;6.592;2023-02-01T06:15:30;7.00;99.90
20483;DHT22;10400;53.198;6.592;2023-02-01T06:17:55;7.00;99.90
20483;DHT22;10400;53.198;6.592;2023-02-01T06:20:21;7.00;99.90
20483;DHT22;10400;53.198;6.592;2023-02-01T06:22:47;7.00;99.90
20483;DHT22;10400;53.198;6.592;2023-02-01T06:25:13;7.00;99.90
20483;DHT22;10400;53.198;6.592;2023-02-01T06:27:38;7.00;99.90
20483;DHT22;10400;53.198;6.592;2023-02-01T06:30:05;7.00;99.90
20483;DHT22;10400;53.198;6.592;2023-02-01T06:32:32;6.90;99.90
20483;DHT22;10400;53.198;6.592;2023-02-01T06:34:57;6.90;99.90
20483;DHT22;10400;53.198;6.592;2023-02-01T06:37:24;6.90;99.90
20483;DHT22;10400;53.198;6.592;2023-02-01T06:39:51;6.90;99.90
20483;DHT22;10400;53.198;6.592;2023-02-01T06:42:17;7.00;99.90
20483;DHT22;10400;53.198;6.592;2023-02-01T06:44:42;6.90;99.90
20483;DHT22;10400;53.198;6.592;2023-02-01T06:47:08;7.00;99.90
20483;DHT22;10400;53.198;6.592;2023-02-01T06:49:34;7.00;99.90
20483;DHT22;10400;53.198;6.592;2023-02-01T06:51:59;7.00;99.90
20483;DHT22;10400;53.198;6.592;2023-02-01T06:54:28;7.00;99.90
20483;DHT22;10400;53.198;6.592;2023-02-01T06:56:54;7.00;99.90
20483;DHT22;10400;53.198;6.592;2023-02-01T06:59:20;7.00;99.90
20483;DHT22;10400;53.198;6.592;2023-02-01T07:01:46;7.00;99.90
20483;DHT22;10400;53.198;6.592;2023-02-01T07:04:12;7.00;99.90
20483;DHT22;10400;53.198;6.592;2023-02-01T07:06:39;7.10;99.90
20483;DHT22;10400;53.198;6.592;2023-02-01T07:09:05;7.10;99.90
20483;DHT22;10400;53.198;6.592;2023-02-01T07:11:30;7.10;99.90
20483;DHT22;10400;53.198;6.592;2023-02-01T07:13:57;7.20;99.90
20483;DHT22;10400;53.198;6.592;2023-02-01T07:16:23;7.10;99.90
20483;DHT22;10400;53.198;6.592;2023-02-01T07:18:50;7.20;99.90
20483;DHT22;10400;53.198;6.592;2023-02-01T07:21:16;7.20;99.90
20483;DHT22;10400;53.198;6.592;2023-02-01T07:23:44;7.20;99.90
20483;DHT22;10400;53.198;6.592;2023-02-01T07:26:12;7.20;99.90
20483;DHT22;10400;53.198;6.592;2023-02-01T07:28:38;7.20;99.90
20483;DHT22;10400;53.198;6.592;2023-02-01T07:31:05;7.10;99.90
20483;DHT22;10400;53.198;6.592;2023-02-01T07:33:31;7.20;99.90
20483;DHT22;10400;53.198;6.592;2023-02-01T07:35:57;7.20;99.90
20483;DHT22;10400;53.198;6.592;2023-02-01T07:38:22;7.20;99.90
20483;DHT22;10400;53.198;6.592;2023-02-01T07:40:58;7.20;99.90
20483;DHT22;10400;53.198;6.592;2023-02-01T07:43:25;7.10;99.90
20483;DHT22;10400;53.198;6.592;2023-02-01T07:45:52;7.10;99.90
20483;DHT22;10400;53.198;6.592;2023-02-01T07:48:18;7.20;99.90
20483;DHT22;10400;53.198;6.592;2023-02-01T07:50:43;7.10;99.90
20483;DHT22;10400;53.198;6.592;2023-02-01T07:53:09;7.10;99.90
20483;DHT22;10400;53.198;6.592;2023-02-01T07:55:37;7.10;99.90
20483;DHT22;10400;53.198;6.592;2023-02-01T07:58:03;7.10;99.90
20483;DHT22;10400;53.198;6.592;2023-02-01T08:00:29;7.20;99.90
20483;DHT22;10400;53.198;6.592;2023-02-01T08:03:13;7.10;99.90
20483;DHT22;10400;53.198;6.592;2023-02-01T08:05:39;7.20;99.90
20483;DHT22;10400;53.198;6.592;2023-02-01T08:08:05;7.10;99.90
20483;DHT22;10400;53.198;6.592;2023-02-01T08:10:30;7.20;99.90
20483;DHT22;10400;53.198;6.592;2023-02-01T08:12:59;7.20;99.90
20483;DHT22;10400;53.198;6.592;2023-02-01T08:15:26;7.20;99.90
20483;DHT22;10400;53.198;6.592;2023-02-01T08:17:53;7.20;99.90
20483;DHT22;10400;53.198;6.592;2023-02-01T08:20:20;7.20;99.90
20483;DHT22;10400;53.198;6.592;2023-02-01T08:22:48;7.20;99.90
20483;DHT22;10400;53.198;6.592;2023-02-01T08:25:14;7.20;99.90
20483;DHT22;10400;53.198;6.592;2023-02-01T08:27:40;7.30;99.90
20483;DHT22;10400;53.198;6.592;2023-02-01T08:30:06;7.20;99.90
20483;DHT22;10400;53.198;6.592;2023-02-01T08:32:33;7.20;99.90
20483;DHT22;10400;53.198;6.592;2023-02-01T08:34:59;7.20;99.90
20483;DHT22;10400;53.198;6.592;2023-02-01T08:37:25;7.30;99.90
20483;DHT22;10400;53.198;6.592;2023-02-01T08:39:50;7.30;99.90
20483;DHT22;10400;53.198;6.592;2023-02-01T08:42:16;7.30;99.90
20483;DHT22;10400;53.198;6.592;2023-02-01T08:45:01;7.30;99.90
20483;DHT22;10400;53.198;6.592;2023-02-01T08:47:28;7.30;99.90
20483;DHT22;10400;53.198;6.592;2023-02-01T08:49:54;7.30;99.90
20483;DHT22;10400;53.198;6.592;2023-02-01T08:52:20;7.30;99.90
20483;DHT22;10400;53.198;6.592;2023-02-01T08:54:45;7.30;99.90
20483;DHT22;10400;53.198;6.592;2023-02-01T08:57:11;7.30;99.90
20483;DHT22;10400;53.198;6.592;2023-02-01T08:59:37;7.30;99.90
20483;DHT22;10400;53.198;6.592;2023-02-01T09:02:08;7.30;99.90
20483;DHT22;10400;53.198;6.592;2023-02-01T09:04:36;7.30;99.90
20483;DHT22;10400;53.198;6.592;2023-02-01T09:07:02;7.30;99.90
20483;DHT22;10400;53.198;6.592;2023-02-01T09:09:28;7.30;99.90
20483;DHT22;10400;53.198;6.592;2023-02-01T09:11:53;7.30;99.90
20483;DHT22;10400;53.198;6.592;2023-02-01T09:14:19;7.30;99.90
20483;DHT22;10400;53.198;6.592;2023-02-01T09:16:45;7.30;99.90
20483;DHT22;10400;53.198;6.592;2023-02-01T09:19:10;7.20;99.90
20483;DHT22;10400;53.198;6.592;2023-02-01T09:21:36;7.30;99.90
20483;DHT22;10400;53.198;6.592;2023-02-01T09:24:01;7.30;99.90
20483;DHT22;10400;53.198;6.592;2023-02-01T09:26:27;7.30;99.90
20483;DHT22;10400;53.198;6.592;2023-02-01T09:28:53;7.30;99.90
20483;DHT22;10400;53.198;6.592;2023-02-01T09:31:19;7.20;99.90
20483;DHT22;10400;53.198;6.592;2023-02-01T09:33:44;7.30;99.90
20483;DHT22;10400;53.198;6.592;2023-02-01T09:36:10;7.20;99.90
20483;DHT22;10400;53.198;6.592;2023-02-01T09:38:36;7.20;99.90
20483;DHT22;10400;53.198;6.592;2023-02-01T09:46:55;7.30;99.90
20483;DHT22;10400;53.198;6.592;2023-02-01T09:49:33;7.30;99.90
20483;DHT22;10400;53.198;6.592;2023-02-01T09:52:04;7.30;99.90
20483;DHT22;10400;53.198;6.592;2023-02-01T09:54:54;7.30;99.90
20483;DHT22;10400;53.198;6.592;2023-02-01T09:57:28;7.30;99.90
20483;DHT22;10400;53.198;6.592;2023-02-01T10:00:04;7.20;99.90
20483;DHT22;10400;53.198;6.592;2023-02-01T10:02:36;7.20;99.90
20483;DHT22;10400;53.198;6.592;2023-02-01T10:05:04;7.20;99.90
20483;DHT22;10400;53.198;6.592;2023-02-01T10:19:04;7.00;99.90
20483;DHT22;10400;53.198;6.592;2023-02-01T10:21:30;6.90;99.90
20483;DHT22;10400;53.198;6.592;2023-02-01T10:26:59;6.90;99.90
20483;DHT22;10400;53.198;6.592;2023-02-01T10:29:36;6.90;99.90
20483;DHT22;10400;53.198;6.592;2023-02-01T10:32:15;6.90;99.90
20483;DHT22;10400;53.198;6.592;2023-02-01T10:34:44;7.00;99.90
20483;DHT22;10400;53.198;6.592;2023-02-01T10:37:30;7.00;99.90
20483;DHT22;10400;53.198;6.592;2023-02-01T10:40:00;7.10;99.90
20483;DHT22;10400;53.198;6.592;2023-02-01T10:42:28;7.10;99.90
20483;DHT22;10400;53.198;6.592;2023-02-01T10:44:58;7.20;99.90
20483;DHT22;10400;53.198;6.592;2023-02-01T10:47:25;7.30;99.90
20483;DHT22;10400;53.198;6.592;2023-02-01T10:50:37;7.30;99.90
20483;DHT22;10400;53.198;6.592;2023-02-01T10:53:34;7.40;99.90
20483;DHT22;10400;53.198;6.592;2023-02-01T10:56:10;7.50;99.90
20483;DHT22;10400;53.198;6.592;2023-02-01T10:58:46;7.60;99.90
20483;DHT22;10400;53.198;6.592;2023-02-01T11:01:34;7.60;99.90
20483;DHT22;10400;53.198;6.592;2023-02-01T11:04:05;7.60;99.90
20483;DHT22;10400;53.198;6.592;2023-02-01T11:06:37;7.60;99.90
20483;DHT22;10400;53.198;6.592;2023-02-01T11:11:32;7.50;99.90
20483;DHT22;10400;53.198;6.592;2023-02-01T11:14:00;7.40;99.90
20483;DHT22;10400;53.198;6.592;2023-02-01T11:16:53;7.40;99.90
20483;DHT22;10400;53.198;6.592;2023-02-01T11:19:19;7.30;99.90
20483;DHT22;10400;53.198;6.592;2023-02-01T11:21:52;7.20;99.90
20483;DHT22;10400;53.198;6.592;2023-02-01T11:24:34;7.20;99.90
20483;DHT22;10400;53.198;6.592;2023-02-01T11:27:03;7.20;99.90
20483;DHT22;10400;53.198;6.592;2023-02-01T11:29:37;7.20;99.90
20483;DHT22;10400;53.198;6.592;2023-02-01T11:32:04;7.10;99.90
20483;DHT22;10400;53.198;6.592;2023-02-01T11:35:11;7.10;99.90
20483;DHT22;10400;53.198;6.592;2023-02-01T11:37:37;7.20;99.90
20483;DHT22;10400;53.198;6.592;2023-02-01T11:40:23;7.20;99.90
20483;DHT22;10400;53.198;6.592;2023-02-01T11:47:54;7.50;99.90
20483;DHT22;10400;53.198;6.592;2023-02-01T11:53:23;7.50;99.90
20483;DHT22;10400;53.198;6.592;2023-02-01T11:56:05;7.30;99.90
20483;DHT22;10400;53.198;6.592;2023-02-01T12:01:57;6.70;99.90
20483;DHT22;10400;53.198;6.592;2023-02-01T12:10:18;6.10;99.90
20483;DHT22;10400;53.198;6.592;2023-02-01T12:12:59;6.10;99.90
20483;DHT22;10400;53.198;6.592;2023-02-01T12:18:46;6.20;99.90
20483;DHT22;10400;53.198;6.592;2023-02-01T12:24:48;7.20;99.90
20483;DHT22;10400;53.198;6.592;2023-02-01T12:30:28;7.90;99.90
20483;DHT22;10400;53.198;6.592;2023-02-01T12:36:07;8.20;99.90
20483;DHT22;10400;53.198;6.592;2023-02-01T12:38:58;8.40;99.90
20483;DHT22;10400;53.198;6.592;2023-02-01T12:47:50;8.50;99.90
20483;DHT22;10400;53.198;6.592;2023-02-01T12:50:28;8.40;99.90
20483;DHT22;10400;53.198;6.592;2023-02-01T12:53:09;8.40;99.90
20483;DHT22;10400;53.198;6.592;2023-02-01T12:55:48;8.30;99.90
20483;DHT22;10400;53.198;6.592;2023-02-01T12:58:17;8.20;99.90
20483;DHT22;10400;53.198;6.592;2023-02-01T13:01:00;8.30;99.90
20483;DHT22;10400;53.198;6.592;2023-02-01T13:06:17;8.30;99.90
20483;DHT22;10400;53.198;6.592;2023-02-01T13:11:34;8.40;99.90
20483;DHT22;10400;53.198;6.592;2023-02-01T13:16:35;8.40;99.90
20483;DHT22;10400;53.198;6.592;2023-02-01T13:19:14;8.40;99.90
20483;DHT22;10400;53.198;6.592;2023-02-01T13:21:46;8.40;99.90
20483;DHT22;10400;53.198;6.592;2023-02-01T13:24:26;8.40;99.90
20483;DHT22;10400;53.198;6.592;2023-02-01T13:26:54;8.50;99.90
20483;DHT22;10400;53.198;6.592;2023-02-01T13:29:20;8.50;99.90
20483;DHT22;10400;53.198;6.592;2023-02-01T13:38:01;8.60;99.90
20483;DHT22;10400;53.198;6.592;2023-02-01T13:40:39;8.60;99.90
20483;DHT22;10400;53.198;6.592;2023-02-01T13:43:26;8.60;99.90
20483;DHT22;10400;53.198;6.592;2023-02-01T13:45:56;8.50;99.90
20483;DHT22;10400;53.198;6.592;2023-02-01T13:51:10;8.50;99.90
20483;DHT22;10400;53.198;6.592;2023-02-01T13:53:38;8.50;99.90
20483;DHT22;10400;53.198;6.592;2023-02-01T13:56:13;8.40;99.90
20483;DHT22;10400;53.198;6.592;2023-02-01T13:58:43;8.50;99.90
20483;DHT22;10400;53.198;6.592;2023-02-01T14:03:52;8.40;99.90
20483;DHT22;10400;53.198;6.592;2023-02-01T14:06:33;8.60;99.90
20483;DHT22;10400;53.198;6.592;2023-02-01T14:11:39;8.50;99.90
20483;DHT22;10400;53.198;6.592;2023-02-01T14:19:23;8.40;99.90
20483;DHT22;10400;53.198;6.592;2023-02-01T14:21:54;8.40;99.90
20483;DHT22;10400;53.198;6.592;2023-02-01T14:24:34;8.40;99.90
20483;DHT22;10400;53.198;6.592;2023-02-01T14:27:24;8.40;99.90
20483;DHT22;10400;53.198;6.592;2023-02-01T14:29:59;8.40;99.90
20483;DHT22;10400;53.198;6.592;2023-02-01T14:32:40;8.40;99.90
20483;DHT22;10400;53.198;6.592;2023-02-01T14:35:16;8.40;99.90
20483;DHT22;10400;53.198;6.592;2023-02-01T14:37:44;8.40;99.90
20483;DHT22;10400;53.198;6.592;2023-02-01T14:55:57;8.40;99.90
20483;DHT22;10400;53.198;6.592;2023-02-01T15:01:22;8.30;99.90
20483;DHT22;10400;53.198;6.592;2023-02-01T15:04:04;8.20;99.90
20483;DHT22;10400;53.198;6.592;2023-02-01T15:07:04;8.20;99.90
20483;DHT22;10400;53.198;6.592;2023-02-01T15:09:38;8.20;99.90
20483;DHT22;10400;53.198;6.592;2023-02-01T15:14:40;8.10;99.90
20483;DHT22;10400;53.198;6.592;2023-02-01T15:19:57;8.10;99.90
20483;DHT22;10400;53.198;6.592;2023-02-01T15:22:23;8.20;99.90
20483;DHT22;10400;53.198;6.592;2023-02-01T15:24:59;8.20;99.90
20483;DHT22;10400;53.198;6.592;2023-02-01T15:27:26;8.20;99.90
20483;DHT22;10400;53.198;6.592;2023-02-01T15:29:52;8.20;99.90
20483;DHT22;10400;53.198;6.592;2023-02-01T15:32:36;8.20;99.90
20483;DHT22;10400;53.198;6.592;2023-02-01T15:35:04;8.30;99.90
20483;DHT22;10400;53.198;6.592;2023-02-01T15:37:31;8.30;99.90
20483;DHT22;10400;53.198;6.592;2023-02-01T15:42:54;8.30;99.90
20483;DHT22;10400;53.198;6.592;2023-02-01T15:45:25;8.30;99.90
20483;DHT22;10400;53.198;6.592;2023-02-01T15:47:54;8.20;99.90
20483;DHT22;10400;53.198;6.592;2023-02-01T15:50:21;8.20;99.90
20483;DHT22;10400;53.198;6.592;2023-02-01T15:52:52;8.20;99.90
20483;DHT22;10400;53.198;6.592;2023-02-01T15:55:37;8.10;99.90
20483;DHT22;10400;53.198;6.592;2023-02-01T15:58:17;8.10;99.90
20483;DHT22;10400;53.198;6.592;2023-02-01T16:00:56;8.00;99.90
20483;DHT22;10400;53.198;6.592;2023-02-01T16:03:36;8.00;99.90
20483;DHT22;10400;53.198;6.592;2023-02-01T16:06:05;7.90;99.90
20483;DHT22;10400;53.198;6.592;2023-02-01T16:08:32;7.80;99.90
20483;DHT22;10400;53.198;6.592;2023-02-01T16:11:24;7.80;99.90
20483;DHT22;10400;53.198;6.592;2023-02-01T16:13:50;7.80;99.90
20483;DHT22;10400;53.198;6.592;2023-02-01T16:16:16;7.70;99.90
20483;DHT22;10400;53.198;6.592;2023-02-01T16:18:42;7.70;99.90
20483;DHT22;10400;53.198;6.592;2023-02-01T16:21:08;7.70;99.90
20483;DHT22;10400;53.198;6.592;2023-02-01T16:23:35;7.70;99.90
20483;DHT22;10400;53.198;6.592;2023-02-01T16:26:01;7.70;99.90
20483;DHT22;10400;53.198;6.592;2023-02-01T16:28:27;7.60;99.90
20483;DHT22;10400;53.198;6.592;2023-02-01T16:30:53;7.60;99.90
20483;DHT22;10400;53.198;6.592;2023-02-01T16:33:20;7.60;99.90
20483;DHT22;10400;53.198;6.592;2023-02-01T16:35:48;7.60;99.90
20483;DHT22;10400;53.198;6.592;2023-02-01T16:38:15;7.60;99.90
20483;DHT22;10400;53.198;6.592;2023-02-01T16:40:45;7.60;99.90
20483;DHT22;10400;53.198;6.592;2023-02-01T16:43:17;7.60;99.90
20483;DHT22;10400;53.198;6.592;2023-02-01T16:45:44;7.60;99.90
20483;DHT22;10400;53.198;6.592;2023-02-01T16:48:24;7.50;99.90
20483;DHT22;10400;53.198;6.592;2023-02-01T16:51:08;7.50;99.90
20483;DHT22;10400;53.198;6.592;2023-02-01T16:53:34;7.40;99.90
20483;DHT22;10400;53.198;6.592;2023-02-01T16:55:59;7.40;99.90
20483;DHT22;10400;53.198;6.592;2023-02-01T16:58:26;7.40;99.90
20483;DHT22;10400;53.198;6.592;2023-02-01T17:00:52;7.40;99.90
20483;DHT22;10400;53.198;6.592;2023-02-01T17:03:19;7.30;99.90
20483;DHT22;10400;53.198;6.592;2023-02-01T17:05:55;7.30;99.90
20483;DHT22;10400;53.198;6.592;2023-02-01T17:08:30;7.30;99.90
20483;DHT22;10400;53.198;6.592;2023-02-01T17:10:56;7.30;99.90
20483;DHT22;10400;53.198;6.592;2023-02-01T17:13:22;7.30;99.90
20483;DHT22;10400;53.198;6.592;2023-02-01T17:15:53;7.40;99.90
20483;DHT22;10400;53.198;6.592;2023-02-01T17:18:19;7.40;99.90
20483;DHT22;10400;53.198;6.592;2023-02-01T17:20:45;7.40;99.90
20483;DHT22;10400;53.198;6.592;2023-02-01T17:23:13;7.40;99.90
20483;DHT22;10400;53.198;6.592;2023-02-01T17:25:39;7.40;99.90
20483;DHT22;10400;53.198;6.592;2023-02-01T17:28:06;7.40;99.90
20483;DHT22;10400;53.198;6.592;2023-02-01T17:30:31;7.40;99.90
20483;DHT22;10400;53.198;6.592;2023-02-01T17:32:57;7.30;99.90
20483;DHT22;10400;53.198;6.592;2023-02-01T17:35:25;7.30;99.90
20483;DHT22;10400;53.198;6.592;2023-02-01T17:37:54;7.30;99.90
20483;DHT22;10400;53.198;6.592;2023-02-01T17:40:19;7.30;99.90
20483;DHT22;10400;53.198;6.592;2023-02-01T17:42:45;7.30;99.90
20483;DHT22;10400;53.198;6.592;2023-02-01T17:48:25;7.20;99.90
20483;DHT22;10400;53.198;6.592;2023-02-01T17:50:51;7.20;99.90
20483;DHT22;10400;53.198;6.592;2023-02-01T17:53:26;7.30;99.90
20483;DHT22;10400;53.198;6.592;2023-02-01T17:55:52;7.30;99.90
20483;DHT22;10400;53.198;6.592;2023-02-01T17:58:18;7.20;99.90
20483;DHT22;10400;53.198;6.592;2023-02-01T18:00:46;7.20;99.90
20483;DHT22;10400;53.198;6.592;2023-02-01T18:05:51;7.20;99.90
20483;DHT22;10400;53.198;6.592;2023-02-01T18:08:21;7.20;99.90
20483;DHT22;10400;53.198;6.592;2023-02-01T18:11:01;7.20;99.90
20483;DHT22;10400;53.198;6.592;2023-02-01T18:13:27;7.20;99.90
20483;DHT22;10400;53.198;6.592;2023-02-01T18:15:53;7.20;99.90
20483;DHT22;10400;53.198;6.592;2023-02-01T18:18:20;7.10;99.90
20483;DHT22;10400;53.198;6.592;2023-02-01T18:20:47;7.20;99.90
20483;DHT22;10400;53.198;6.592;2023-02-01T18:23:15;7.20;99.90
20483;DHT22;10400;53.198;6.592;2023-02-01T18:25:45;7.30;99.90
20483;DHT22;10400;53.198;6.592;2023-02-01T18:28:12;7.30;99.90